Red Oak, IA

5:50 AM CDT on May 26, 2015 (GMT -0500)
Red Oak Municipal | | Change Station
CLOSE
Current Station
Airport
Location: Red Oak,
Elevation: 1043 ft
Nearby Weather Stations

Elev 1043 ft 41.01 °N, 95.26 °W | Updated 15 minutes ago

Rain
Rain
59 °F
Feels Like 59 °F
N
4
Wind Variable Wind from NE

Today
High -- | Low -- °F
--% Chance of Precip.
Yesterday
High -- | Low -- °F
Precip. -- in
5:54 AM 8:41 PM
First Quarter, 57% visible
Pressure 29.75 in
Visibility 10.0 miles
Clouds Mostly Cloudy 7500 ft
Overcast 8500 ft
Dew Point 59 °F
Humidity 100%
Rainfall 0.06 in
Snow Depth Not available.
UV 0 out of 12
Pollen 2.00 out of 12
Air Quality Not available.
Flu Activity Sporadic
METAR KRDK 261035Z AUTO 04003KT 10SM BKN075 OVC085 15/15 A2975 RMK AO2

More Conditions Fewer Conditions

Pressure 29.75 in
Visibility 10.0 miles
Clouds Mostly Cloudy 7500 ft
Overcast 8500 ft
Dew Point 59 °F
Humidity 100%
Rainfall 0.06 in
Snow Depth Not available.
UV 0 out of 12
Pollen 2.00 out of 12
Air Quality Not available.
Flu Activity Sporadic
METAR KRDK 261035Z AUTO 04003KT 10SM BKN075 OVC085 15/15 A2975 RMK AO2

More Conditions Fewer Conditions

10-Day Weather Forecast

Almanac

Astronomy

May. 26, 2015 Rise Set
Actual Time
Civil Twilight
Nautical Twilight
Astronomical Twilight
Moon
Length of Visible Light
Length of Day
Tomorrow will be .
, % of the Moon is Illuminated

Today's Extremes

State Highs State Lows

Community

WunderPhotos

Upload Photos

1,824,305 photos uploaded!

WunderBlogs® & News

Nearby

Air Quality

  Air Quality AQ Index Pollutant
Not available.

Snow Depth

Station Depth Elevation

Earthquake Activity

City Distance Mag. Time & Date
Minimum magnitude displayed is 2.5.

Coastal Water Temperatures

Place Temperature

Stations

Nearby Weather Stations

Station Location Temp. Windchill Dew Point Humidity Wind Precip. Elev Updated Type